sensor_id;sensor_type;location;lat;lon;timestamp;temperature;humidity
19365;DHT22;9818;48.382;10.850;2022-08-05T00:01:02;21.70;99.90
19365;DHT22;9818;48.382;10.850;2022-08-05T00:03:33;21.60;99.90
19365;DHT22;9818;48.382;10.850;2022-08-05T00:06:01;21.60;99.90
19365;DHT22;9818;48.382;10.850;2022-08-05T00:08:30;21.60;99.90
19365;DHT22;9818;48.382;10.850;2022-08-05T00:10:59;21.60;99.90
19365;DHT22;9818;48.382;10.850;2022-08-05T00:13:29;21.50;99.90
19365;DHT22;9818;48.382;10.850;2022-08-05T00:15:58;21.50;99.90
19365;DHT22;9818;48.382;10.850;2022-08-05T00:18:27;21.50;99.90
19365;DHT22;9818;48.382;10.850;2022-08-05T00:20:58;21.50;99.90
19365;DHT22;9818;48.382;10.850;2022-08-05T00:23:27;21.50;99.90
19365;DHT22;9818;48.382;10.850;2022-08-05T00:25:55;21.50;99.90
19365;DHT22;9818;48.382;10.850;2022-08-05T00:28:23;21.50;99.90
19365;DHT22;9818;48.382;10.850;2022-08-05T00:30:52;21.50;99.90
19365;DHT22;9818;48.382;10.850;2022-08-05T00:33:20;21.50;99.90
19365;DHT22;9818;48.382;10.850;2022-08-05T00:35:49;21.50;99.90
19365;DHT22;9818;48.382;10.850;2022-08-05T00:38:20;21.40;99.90
19365;DHT22;9818;48.382;10.850;2022-08-05T00:40:50;21.40;99.90
19365;DHT22;9818;48.382;10.850;2022-08-05T00:43:18;21.40;99.90
19365;DHT22;9818;48.382;10.850;2022-08-05T00:45:47;21.30;99.90
19365;DHT22;9818;48.382;10.850;2022-08-05T00:48:16;21.30;99.90
19365;DHT22;9818;48.382;10.850;2022-08-05T00:50:46;21.20;99.90
19365;DHT22;9818;48.382;10.850;2022-08-05T00:53:15;21.20;99.90
19365;DHT22;9818;48.382;10.850;2022-08-05T00:55:47;21.10;99.90
19365;DHT22;9818;48.382;10.850;2022-08-05T00:58:16;21.10;99.90
19365;DHT22;9818;48.382;10.850;2022-08-05T01:00:45;21.00;99.90
19365;DHT22;9818;48.382;10.850;2022-08-05T01:03:13;21.00;99.90
19365;DHT22;9818;48.382;10.850;2022-08-05T01:05:42;20.90;99.90
19365;DHT22;9818;48.382;10.850;2022-08-05T01:08:10;20.90;99.90
19365;DHT22;9818;48.382;10.850;2022-08-05T01:21:07;20.70;99.90
19365;DHT22;9818;48.382;10.850;2022-08-05T01:23:45;20.60;99.90
19365;DHT22;9818;48.382;10.850;2022-08-05T01:26:30;20.50;99.90
19365;DHT22;9818;48.382;10.850;2022-08-05T01:29:05;20.50;99.90
19365;DHT22;9818;48.382;10.850;2022-08-05T01:31:36;20.60;99.90
19365;DHT22;9818;48.382;10.850;2022-08-05T01:34:06;20.60;99.90
19365;DHT22;9818;48.382;10.850;2022-08-05T01:36:37;20.40;99.90
19365;DHT22;9818;48.382;10.850;2022-08-05T01:39:07;20.40;99.90
19365;DHT22;9818;48.382;10.850;2022-08-05T01:41:35;20.30;99.90
19365;DHT22;9818;48.382;10.850;2022-08-05T01:44:07;20.20;99.90
19365;DHT22;9818;48.382;10.850;2022-08-05T01:46:38;20.20;99.90
19365;DHT22;9818;48.382;10.850;2022-08-05T01:49:07;20.20;99.90
19365;DHT22;9818;48.382;10.850;2022-08-05T01:51:37;20.20;99.90
19365;DHT22;9818;48.382;10.850;2022-08-05T01:54:07;20.10;99.90
19365;DHT22;9818;48.382;10.850;2022-08-05T01:56:36;20.10;99.90
19365;DHT22;9818;48.382;10.850;2022-08-05T01:59:10;20.10;99.90
19365;DHT22;9818;48.382;10.850;2022-08-05T02:01:39;20.10;99.90
19365;DHT22;9818;48.382;10.850;2022-08-05T02:04:08;20.10;99.90
19365;DHT22;9818;48.382;10.850;2022-08-05T02:06:37;20.00;99.90
19365;DHT22;9818;48.382;10.850;2022-08-05T02:09:06;20.00;99.90
19365;DHT22;9818;48.382;10.850;2022-08-05T02:11:37;20.00;99.90
19365;DHT22;9818;48.382;10.850;2022-08-05T02:14:11;19.90;99.90
19365;DHT22;9818;48.382;10.850;2022-08-05T02:16:41;20.00;99.90
19365;DHT22;9818;48.382;10.850;2022-08-05T02:19:13;20.00;99.90
19365;DHT22;9818;48.382;10.850;2022-08-05T02:21:47;19.90;99.90
19365;DHT22;9818;48.382;10.850;2022-08-05T02:24:17;19.90;99.90
19365;DHT22;9818;48.382;10.850;2022-08-05T02:26:48;20.00;99.90
19365;DHT22;9818;48.382;10.850;2022-08-05T02:29:21;20.00;99.90
19365;DHT22;9818;48.382;10.850;2022-08-05T02:31:50;20.00;99.90
19365;DHT22;9818;48.382;10.850;2022-08-05T02:34:21;20.00;99.90
19365;DHT22;9818;48.382;10.850;2022-08-05T02:36:52;20.00;99.90
19365;DHT22;9818;48.382;10.850;2022-08-05T02:39:23;20.00;99.90
19365;DHT22;9818;48.382;10.850;2022-08-05T02:41:54;20.00;99.90
19365;DHT22;9818;48.382;10.850;2022-08-05T02:44:26;20.00;99.90
19365;DHT22;9818;48.382;10.850;2022-08-05T02:46:55;19.90;99.90
19365;DHT22;9818;48.382;10.850;2022-08-05T02:49:25;20.00;99.90
19365;DHT22;9818;48.382;10.850;2022-08-05T02:51:54;19.90;99.90
19365;DHT22;9818;48.382;10.850;2022-08-05T02:54:23;20.00;99.90
19365;DHT22;9818;48.382;10.850;2022-08-05T02:56:52;19.90;99.90
19365;DHT22;9818;48.382;10.850;2022-08-05T02:59:20;19.90;99.90
19365;DHT22;9818;48.382;10.850;2022-08-05T03:01:54;19.90;99.90
19365;DHT22;9818;48.382;10.850;2022-08-05T03:04:25;19.90;99.90
19365;DHT22;9818;48.382;10.850;2022-08-05T03:06:54;19.90;99.90
19365;DHT22;9818;48.382;10.850;2022-08-05T03:09:22;19.80;99.90
19365;DHT22;9818;48.382;10.850;2022-08-05T03:11:51;19.80;99.90
19365;DHT22;9818;48.382;10.850;2022-08-05T03:14:32;19.80;99.90
19365;DHT22;9818;48.382;10.850;2022-08-05T03:17:03;19.80;99.90
19365;DHT22;9818;48.382;10.850;2022-08-05T03:19:32;19.80;99.90
19365;DHT22;9818;48.382;10.850;2022-08-05T03:22:00;19.80;99.90
19365;DHT22;9818;48.382;10.850;2022-08-05T03:24:29;19.80;99.90
19365;DHT22;9818;48.382;10.850;2022-08-05T03:26:57;19.80;99.90
19365;DHT22;9818;48.382;10.850;2022-08-05T03:29:26;19.80;99.90
19365;DHT22;9818;48.382;10.850;2022-08-05T03:31:54;19.80;99.90
19365;DHT22;9818;48.382;10.850;2022-08-05T03:34:25;19.80;99.90
19365;DHT22;9818;48.382;10.850;2022-08-05T03:36:54;19.80;99.90
19365;DHT22;9818;48.382;10.850;2022-08-05T03:39:23;19.80;99.90
19365;DHT22;9818;48.382;10.850;2022-08-05T03:41:51;19.80;99.90
19365;DHT22;9818;48.382;10.850;2022-08-05T03:44:20;19.80;99.90
19365;DHT22;9818;48.382;10.850;2022-08-05T03:46:48;19.80;99.90
19365;DHT22;9818;48.382;10.850;2022-08-05T03:49:16;19.80;99.90
19365;DHT22;9818;48.382;10.850;2022-08-05T03:51:49;19.90;99.90
19365;DHT22;9818;48.382;10.850;2022-08-05T03:54:22;19.90;99.90
19365;DHT22;9818;48.382;10.850;2022-08-05T03:56:55;20.00;99.90
19365;DHT22;9818;48.382;10.850;2022-08-05T03:59:25;20.10;99.90
19365;DHT22;9818;48.382;10.850;2022-08-05T04:01:55;20.20;99.90
19365;DHT22;9818;48.382;10.850;2022-08-05T04:04:25;20.30;99.90
19365;DHT22;9818;48.382;10.850;2022-08-05T04:06:57;20.40;99.90
19365;DHT22;9818;48.382;10.850;2022-08-05T04:09:26;20.60;99.90
19365;DHT22;9818;48.382;10.850;2022-08-05T04:11:55;20.80;99.90
19365;DHT22;9818;48.382;10.850;2022-08-05T04:14:24;21.50;99.90
19365;DHT22;9818;48.382;10.850;2022-08-05T04:16:54;22.10;99.90
19365;DHT22;9818;48.382;10.850;2022-08-05T04:19:23;22.50;99.90
19365;DHT22;9818;48.382;10.850;2022-08-05T04:21:51;22.70;99.90
19365;DHT22;9818;48.382;10.850;2022-08-05T04:24:22;23.20;99.90
19365;DHT22;9818;48.382;10.850;2022-08-05T04:26:51;23.90;99.90
19365;DHT22;9818;48.382;10.850;2022-08-05T04:29:19;24.50;99.90
19365;DHT22;9818;48.382;10.850;2022-08-05T04:31:48;25.20;99.90
19365;DHT22;9818;48.382;10.850;2022-08-05T04:34:16;25.30;99.90
19365;DHT22;9818;48.382;10.850;2022-08-05T04:36:45;25.70;99.90
19365;DHT22;9818;48.382;10.850;2022-08-05T04:39:13;26.00;99.90
19365;DHT22;9818;48.382;10.850;2022-08-05T04:41:44;27.10;99.90
19365;DHT22;9818;48.382;10.850;2022-08-05T04:44:13;28.00;99.90
19365;DHT22;9818;48.382;10.850;2022-08-05T04:46:41;28.70;99.90
19365;DHT22;9818;48.382;10.850;2022-08-05T04:49:10;29.40;99.90
19365;DHT22;9818;48.382;10.850;2022-08-05T04:51:38;28.80;99.90
19365;DHT22;9818;48.382;10.850;2022-08-05T04:54:06;28.60;99.90
19365;DHT22;9818;48.382;10.850;2022-08-05T04:56:35;29.00;99.90
19365;DHT22;9818;48.382;10.850;2022-08-05T04:59:06;30.00;99.90
19365;DHT22;9818;48.382;10.850;2022-08-05T05:01:35;31.20;99.90
19365;DHT22;9818;48.382;10.850;2022-08-05T05:04:04;30.90;99.90
19365;DHT22;9818;48.382;10.850;2022-08-05T05:06:33;30.00;99.90
19365;DHT22;9818;48.382;10.850;2022-08-05T05:09:01;31.20;99.90
19365;DHT22;9818;48.382;10.850;2022-08-05T05:11:30;30.90;99.90
19365;DHT22;9818;48.382;10.850;2022-08-05T05:13:58;31.00;99.90
19365;DHT22;9818;48.382;10.850;2022-08-05T05:16:30;29.90;99.90
19365;DHT22;9818;48.382;10.850;2022-08-05T05:18:59;28.60;99.90
19365;DHT22;9818;48.382;10.850;2022-08-05T05:21:27;27.70;99.90
19365;DHT22;9818;48.382;10.850;2022-08-05T05:23:56;27.70;99.90
19365;DHT22;9818;48.382;10.850;2022-08-05T05:26:24;28.10;99.90
19365;DHT22;9818;48.382;10.850;2022-08-05T05:28:53;28.70;99.90
19365;DHT22;9818;48.382;10.850;2022-08-05T05:31:21;29.10;99.90
19365;DHT22;9818;48.382;10.850;2022-08-05T05:33:52;29.20;99.90
19365;DHT22;9818;48.382;10.850;2022-08-05T05:36:20;27.70;99.90
19365;DHT22;9818;48.382;10.850;2022-08-05T05:38:49;27.40;99.90
19365;DHT22;9818;48.382;10.850;2022-08-05T05:41:17;27.20;99.90
19365;DHT22;9818;48.382;10.850;2022-08-05T05:43:46;26.80;99.90
19365;DHT22;9818;48.382;10.850;2022-08-05T05:46:14;26.60;99.90
19365;DHT22;9818;48.382;10.850;2022-08-05T05:48:42;26.80;99.90
19365;DHT22;9818;48.382;10.850;2022-08-05T05:51:16;27.00;99.90
19365;DHT22;9818;48.382;10.850;2022-08-05T05:53:44;26.90;99.90
19365;DHT22;9818;48.382;10.850;2022-08-05T05:56:13;27.00;99.90
19365;DHT22;9818;48.382;10.850;2022-08-05T05:58:41;27.20;99.90
19365;DHT22;9818;48.382;10.850;2022-08-05T06:01:12;28.20;99.90
19365;DHT22;9818;48.382;10.850;2022-08-05T06:03:40;27.90;99.90
19365;DHT22;9818;48.382;10.850;2022-08-05T06:06:09;28.00;99.90
19365;DHT22;9818;48.382;10.850;2022-08-05T06:08:40;27.80;99.90
19365;DHT22;9818;48.382;10.850;2022-08-05T06:11:08;28.90;99.90
19365;DHT22;9818;48.382;10.850;2022-08-05T06:13:37;29.20;99.90
19365;DHT22;9818;48.382;10.850;2022-08-05T06:16:05;28.70;99.90
19365;DHT22;9818;48.382;10.850;2022-08-05T06:18:34;28.20;99.90
19365;DHT22;9818;48.382;10.850;2022-08-05T06:21:02;27.50;99.90
19365;DHT22;9818;48.382;10.850;2022-08-05T06:23:31;27.30;99.90
19365;DHT22;9818;48.382;10.850;2022-08-05T06:26:02;27.10;99.90
19365;DHT22;9818;48.382;10.850;2022-08-05T06:28:30;27.30;99.90
19365;DHT22;9818;48.382;10.850;2022-08-05T06:30:59;27.30;99.90
19365;DHT22;9818;48.382;10.850;2022-08-05T06:33:27;29.40;99.90
19365;DHT22;9818;48.382;10.850;2022-08-05T06:35:56;31.30;99.90
19365;DHT22;9818;48.382;10.850;2022-08-05T06:38:24;32.70;99.90
19365;DHT22;9818;48.382;10.850;2022-08-05T06:40:53;33.90;99.90
19365;DHT22;9818;48.382;10.850;2022-08-05T06:43:24;32.20;99.90
19365;DHT22;9818;48.382;10.850;2022-08-05T06:45:52;30.70;99.90
19365;DHT22;9818;48.382;10.850;2022-08-05T06:48:21;30.10;99.90
19365;DHT22;9818;48.382;10.850;2022-08-05T06:50:49;29.50;99.90
19365;DHT22;9818;48.382;10.850;2022-08-05T06:53:18;29.00;99.90
19365;DHT22;9818;48.382;10.850;2022-08-05T06:55:46;29.00;99.90
19365;DHT22;9818;48.382;10.850;2022-08-05T06:58:14;28.90;99.90
19365;DHT22;9818;48.382;10.850;2022-08-05T07:00:45;28.70;99.90
19365;DHT22;9818;48.382;10.850;2022-08-05T07:03:14;29.10;99.90
19365;DHT22;9818;48.382;10.850;2022-08-05T07:05:42;29.60;99.90
19365;DHT22;9818;48.382;10.850;2022-08-05T07:08:11;30.00;99.90
19365;DHT22;9818;48.382;10.850;2022-08-05T07:10:39;31.90;99.90
19365;DHT22;9818;48.382;10.850;2022-08-05T07:13:08;33.60;99.90
19365;DHT22;9818;48.382;10.850;2022-08-05T07:15:52;34.00;99.90
19365;DHT22;9818;48.382;10.850;2022-08-05T07:18:33;35.50;95.80
19365;DHT22;9818;48.382;10.850;2022-08-05T07:21:02;35.90;90.00
19365;DHT22;9818;48.382;10.850;2022-08-05T07:23:30;35.00;92.00
19365;DHT22;9818;48.382;10.850;2022-08-05T07:25:59;35.60;91.30
19365;DHT22;9818;48.382;10.850;2022-08-05T07:28:28;36.10;88.90
19365;DHT22;9818;48.382;10.850;2022-08-05T07:30:59;36.10;84.30
19365;DHT22;9818;48.382;10.850;2022-08-05T07:33:28;37.00;73.20
19365;DHT22;9818;48.382;10.850;2022-08-05T07:35:57;33.70;94.80
19365;DHT22;9818;48.382;10.850;2022-08-05T07:38:26;34.50;94.20
19365;DHT22;9818;48.382;10.850;2022-08-05T07:40:55;36.30;91.50
19365;DHT22;9818;48.382;10.850;2022-08-05T07:43:23;37.40;68.70
19365;DHT22;9818;48.382;10.850;2022-08-05T07:45:52;35.60;90.20
19365;DHT22;9818;48.382;10.850;2022-08-05T07:48:23;35.90;87.40
19365;DHT22;9818;48.382;10.850;2022-08-05T07:50:52;37.10;83.10
19365;DHT22;9818;48.382;10.850;2022-08-05T07:53:21;36.30;74.60
19365;DHT22;9818;48.382;10.850;2022-08-05T07:55:50;36.30;81.20
19365;DHT22;9818;48.382;10.850;2022-08-05T07:58:18;36.30;76.20
19365;DHT22;9818;48.382;10.850;2022-08-05T08:00:46;34.50;83.50
19365;DHT22;9818;48.382;10.850;2022-08-05T08:03:15;32.60;97.40
19365;DHT22;9818;48.382;10.850;2022-08-05T08:05:46;31.80;99.90
19365;DHT22;9818;48.382;10.850;2022-08-05T08:08:15;31.50;99.90
19365;DHT22;9818;48.382;10.850;2022-08-05T08:10:44;30.00;99.90
19365;DHT22;9818;48.382;10.850;2022-08-05T08:13:13;29.60;99.90
19365;DHT22;9818;48.382;10.850;2022-08-05T08:15:41;29.20;99.90
19365;DHT22;9818;48.382;10.850;2022-08-05T08:18:10;29.70;99.90
19365;DHT22;9818;48.382;10.850;2022-08-05T08:20:39;28.70;99.90
19365;DHT22;9818;48.382;10.850;2022-08-05T08:23:10;27.80;99.90
19365;DHT22;9818;48.382;10.850;2022-08-05T08:25:39;28.40;99.90
19365;DHT22;9818;48.382;10.850;2022-08-05T08:28:07;29.10;99.90
19365;DHT22;9818;48.382;10.850;2022-08-05T08:30:36;29.50;99.90
19365;DHT22;9818;48.382;10.850;2022-08-05T08:33:08;30.50;99.90
19365;DHT22;9818;48.382;10.850;2022-08-05T08:35:38;32.40;99.90
19365;DHT22;9818;48.382;10.850;2022-08-05T08:38:09;33.90;97.60
19365;DHT22;9818;48.382;10.850;2022-08-05T08:40:42;33.70;96.20
19365;DHT22;9818;48.382;10.850;2022-08-05T08:43:12;33.40;97.30
19365;DHT22;9818;48.382;10.850;2022-08-05T08:45:42;32.80;98.80
19365;DHT22;9818;48.382;10.850;2022-08-05T08:48:13;30.10;99.90
19365;DHT22;9818;48.382;10.850;2022-08-05T08:50:43;30.00;99.90
19365;DHT22;9818;48.382;10.850;2022-08-05T08:53:17;31.30;99.90
19365;DHT22;9818;48.382;10.850;2022-08-05T08:55:46;34.10;95.40
19365;DHT22;9818;48.382;10.850;2022-08-05T08:58:15;35.30;83.10
19365;DHT22;9818;48.382;10.850;2022-08-05T09:00:44;35.40;77.70
19365;DHT22;9818;48.382;10.850;2022-08-05T09:03:13;36.50;64.30
19365;DHT22;9818;48.382;10.850;2022-08-05T09:05:41;35.80;58.20
19365;DHT22;9818;48.382;10.850;2022-08-05T09:08:09;35.70;56.20
19365;DHT22;9818;48.382;10.850;2022-08-05T09:10:41;37.00;56.50
19365;DHT22;9818;48.382;10.850;2022-08-05T09:13:12;35.40;57.90
19365;DHT22;9818;48.382;10.850;2022-08-05T09:15:40;34.10;76.60
19365;DHT22;9818;48.382;10.850;2022-08-05T09:18:09;35.10;72.10
19365;DHT22;9818;48.382;10.850;2022-08-05T09:20:37;36.60;56.20
19365;DHT22;9818;48.382;10.850;2022-08-05T09:23:10;36.10;53.80
19365;DHT22;9818;48.382;10.850;2022-08-05T09:25:44;36.10;57.60
19365;DHT22;9818;48.382;10.850;2022-08-05T09:28:15;34.90;58.20
19365;DHT22;9818;48.382;10.850;2022-08-05T09:30:51;36.10;64.00
19365;DHT22;9818;48.382;10.850;2022-08-05T09:33:20;34.10;67.30
19365;DHT22;9818;48.382;10.850;2022-08-05T09:35:55;32.90;77.80
19365;DHT22;9818;48.382;10.850;2022-08-05T09:38:23;35.30;56.20
19365;DHT22;9818;48.382;10.850;2022-08-05T09:40:54;36.10;48.60
19365;DHT22;9818;48.382;10.850;2022-08-05T09:43:30;35.90;40.60
19365;DHT22;9818;48.382;10.850;2022-08-05T09:45:58;36.50;52.60
19365;DHT22;9818;48.382;10.850;2022-08-05T09:48:27;37.10;32.10
19365;DHT22;9818;48.382;10.850;2022-08-05T09:50:57;38.20;26.90
19365;DHT22;9818;48.382;10.850;2022-08-05T09:53:26;39.10;20.80
19365;DHT22;9818;48.382;10.850;2022-08-05T09:55:58;38.60;17.60
19365;DHT22;9818;48.382;10.850;2022-08-05T09:58:26;37.60;21.40
19365;DHT22;9818;48.382;10.850;2022-08-05T10:00:57;38.60;19.70
19365;DHT22;9818;48.382;10.850;2022-08-05T10:03:25;39.50;16.30
19365;DHT22;9818;48.382;10.850;2022-08-05T10:06:01;39.90;11.40
19365;DHT22;9818;48.382;10.850;2022-08-05T10:08:30;39.30;13.70
19365;DHT22;9818;48.382;10.850;2022-08-05T10:11:02;38.70;11.20
19365;DHT22;9818;48.382;10.850;2022-08-05T10:13:32;38.50;12.80
19365;DHT22;9818;48.382;10.850;2022-08-05T10:16:01;37.10;14.70
19365;DHT22;9818;48.382;10.850;2022-08-05T10:18:30;36.50;20.60
19365;DHT22;9818;48.382;10.850;2022-08-05T10:20:59;36.80;19.00
19365;DHT22;9818;48.382;10.850;2022-08-05T10:23:29;38.70;15.90
19365;DHT22;9818;48.382;10.850;2022-08-05T10:25:58;39.30;12.00
19365;DHT22;9818;48.382;10.850;2022-08-05T10:28:29;38.70;12.50
19365;DHT22;9818;48.382;10.850;2022-08-05T10:30:58;36.90;11.80
19365;DHT22;9818;48.382;10.850;2022-08-05T10:33:28;37.60;17.20
19365;DHT22;9818;48.382;10.850;2022-08-05T10:35:57;38.60;14.60
19365;DHT22;9818;48.382;10.850;2022-08-05T10:38:26;39.60;12.60
19365;DHT22;9818;48.382;10.850;2022-08-05T10:40:57;38.90;10.60
19365;DHT22;9818;48.382;10.850;2022-08-05T10:43:33;35.20;17.70
19365;DHT22;9818;48.382;10.850;2022-08-05T10:46:06;33.60;22.70
19365;DHT22;9818;48.382;10.850;2022-08-05T10:48:35;33.20;31.80
19365;DHT22;9818;48.382;10.850;2022-08-05T10:51:05;35.50;34.10
19365;DHT22;9818;48.382;10.850;2022-08-05T10:53:38;37.00;23.80
19365;DHT22;9818;48.382;10.850;2022-08-05T10:56:07;36.00;25.70
19365;DHT22;9818;48.382;10.850;2022-08-05T10:58:46;36.10;20.40
19365;DHT22;9818;48.382;10.850;2022-08-05T11:01:15;34.80;30.20
19365;DHT22;9818;48.382;10.850;2022-08-05T11:06:30;35.50;27.40
19365;DHT22;9818;48.382;10.850;2022-08-05T11:11:42;31.80;69.50
19365;DHT22;9818;48.382;10.850;2022-08-05T11:14:21;31.70;73.30
19365;DHT22;9818;48.382;10.850;2022-08-05T11:19:37;33.70;60.40
19365;DHT22;9818;48.382;10.850;2022-08-05T11:27:40;33.80;58.10
19365;DHT22;9818;48.382;10.850;2022-08-05T11:30:11;34.20;54.20
19365;DHT22;9818;48.382;10.850;2022-08-05T11:32:39;34.00;54.20
19365;DHT22;9818;48.382;10.850;2022-08-05T11:35:08;34.20;52.70
19365;DHT22;9818;48.382;10.850;2022-08-05T11:37:59;33.50;54.00
19365;DHT22;9818;48.382;10.850;2022-08-05T11:43:18;32.20;71.00
19365;DHT22;9818;48.382;10.850;2022-08-05T11:45:50;32.80;63.40
19365;DHT22;9818;48.382;10.850;2022-08-05T11:48:18;32.70;68.70
19365;DHT22;9818;48.382;10.850;2022-08-05T11:50:48;31.80;75.00
19365;DHT22;9818;48.382;10.850;2022-08-05T11:53:16;32.30;70.20
19365;DHT22;9818;48.382;10.850;2022-08-05T11:55:52;32.40;67.40
19365;DHT22;9818;48.382;10.850;2022-08-05T11:58:26;32.90;67.70
19365;DHT22;9818;48.382;10.850;2022-08-05T12:01:04;33.40;63.40
19365;DHT22;9818;48.382;10.850;2022-08-05T12:03:39;33.60;59.70
19365;DHT22;9818;48.382;10.850;2022-08-05T12:06:08;33.70;60.00
19365;DHT22;9818;48.382;10.850;2022-08-05T12:08:40;33.70;57.70
19365;DHT22;9818;48.382;10.850;2022-08-05T12:11:09;33.50;59.30
19365;DHT22;9818;48.382;10.850;2022-08-05T12:13:38;33.30;59.50
19365;DHT22;9818;48.382;10.850;2022-08-05T12:16:11;33.30;62.00
19365;DHT22;9818;48.382;10.850;2022-08-05T12:18:44;33.60;58.40
19365;DHT22;9818;48.382;10.850;2022-08-05T12:21:14;34.00;55.80
19365;DHT22;9818;48.382;10.850;2022-08-05T12:23:52;34.00;52.40
19365;DHT22;9818;48.382;10.850;2022-08-05T12:26:21;34.10;53.30
19365;DHT22;9818;48.382;10.850;2022-08-05T12:28:49;33.80;52.60
19365;DHT22;9818;48.382;10.850;2022-08-05T12:31:20;33.60;54.50
19365;DHT22;9818;48.382;10.850;2022-08-05T12:33:49;33.50;57.10
19365;DHT22;9818;48.382;10.850;2022-08-05T12:36:19;34.00;54.40
19365;DHT22;9818;48.382;10.850;2022-08-05T12:38:47;34.30;51.00
19365;DHT22;9818;48.382;10.850;2022-08-05T12:41:16;34.00;50.70
19365;DHT22;9818;48.382;10.850;2022-08-05T12:43:48;34.30;48.80
19365;DHT22;9818;48.382;10.850;2022-08-05T12:46:23;34.10;49.70
19365;DHT22;9818;48.382;10.850;2022-08-05T12:48:59;33.90;49.60
19365;DHT22;9818;48.382;10.850;2022-08-05T12:51:28;33.70;52.40
19365;DHT22;9818;48.382;10.850;2022-08-05T12:54:00;33.40;50.50
19365;DHT22;9818;48.382;10.850;2022-08-05T12:56:29;33.30;56.20
19365;DHT22;9818;48.382;10.850;2022-08-05T12:59:10;33.60;54.90
19365;DHT22;9818;48.382;10.850;2022-08-05T13:01:42;33.60;52.90
19365;DHT22;9818;48.382;10.850;2022-08-05T13:04:10;33.90;50.20
19365;DHT22;9818;48.382;10.850;2022-08-05T13:06:40;34.10;49.70
19365;DHT22;9818;48.382;10.850;2022-08-05T13:09:09;34.40;49.30
19365;DHT22;9818;48.382;10.850;2022-08-05T13:11:39;34.30;50.30
19365;DHT22;9818;48.382;10.850;2022-08-05T13:14:17;34.40;48.60
19365;DHT22;9818;48.382;10.850;2022-08-05T13:16:49;34.40;50.20
19365;DHT22;9818;48.382;10.850;2022-08-05T13:19:19;34.40;48.30
19365;DHT22;9818;48.382;10.850;2022-08-05T13:21:48;34.40;47.50
19365;DHT22;9818;48.382;10.850;2022-08-05T13:24:16;34.40;48.40
19365;DHT22;9818;48.382;10.850;2022-08-05T13:26:45;34.30;49.70
19365;DHT22;9818;48.382;10.850;2022-08-05T13:29:14;34.40;49.20
19365;DHT22;9818;48.382;10.850;2022-08-05T13:31:44;33.90;48.20
19365;DHT22;9818;48.382;10.850;2022-08-05T13:34:15;33.10;56.40
19365;DHT22;9818;48.382;10.850;2022-08-05T13:36:44;32.40;60.40
19365;DHT22;9818;48.382;10.850;2022-08-05T13:39:12;32.70;62.10
19365;DHT22;9818;48.382;10.850;2022-08-05T13:41:41;33.00;58.90
19365;DHT22;9818;48.382;10.850;2022-08-05T13:44:09;33.60;57.50
19365;DHT22;9818;48.382;10.850;2022-08-05T13:46:37;33.90;57.70
19365;DHT22;9818;48.382;10.850;2022-08-05T13:49:06;34.20;52.00
19365;DHT22;9818;48.382;10.850;2022-08-05T13:51:37;34.30;50.60
19365;DHT22;9818;48.382;10.850;2022-08-05T13:54:06;34.30;50.20
19365;DHT22;9818;48.382;10.850;2022-08-05T13:56:34;34.50;48.70
19365;DHT22;9818;48.382;10.850;2022-08-05T13:59:03;34.60;49.50
19365;DHT22;9818;48.382;10.850;2022-08-05T14:01:31;34.80;49.70
19365;DHT22;9818;48.382;10.850;2022-08-05T14:04:02;34.60;44.70
19365;DHT22;9818;48.382;10.850;2022-08-05T14:06:45;33.70;47.60
19365;DHT22;9818;48.382;10.850;2022-08-05T14:09:14;34.10;49.00
19365;DHT22;9818;48.382;10.850;2022-08-05T14:11:42;34.60;47.80
19365;DHT22;9818;48.382;10.850;2022-08-05T14:14:11;34.70;46.40
19365;DHT22;9818;48.382;10.850;2022-08-05T14:16:39;35.10;39.80
19365;DHT22;9818;48.382;10.850;2022-08-05T14:19:08;34.80;41.10
19365;DHT22;9818;48.382;10.850;2022-08-05T14:21:36;34.00;47.60
19365;DHT22;9818;48.382;10.850;2022-08-05T14:24:07;34.50;46.90
19365;DHT22;9818;48.382;10.850;2022-08-05T14:26:36;34.70;43.50
19365;DHT22;9818;48.382;10.850;2022-08-05T14:29:05;34.50;41.40
19365;DHT22;9818;48.382;10.850;2022-08-05T14:31:33;33.10;49.00
19365;DHT22;9818;48.382;10.850;2022-08-05T14:34:02;32.40;55.50
19365;DHT22;9818;48.382;10.850;2022-08-05T14:36:30;33.10;56.90
19365;DHT22;9818;48.382;10.850;2022-08-05T14:38:59;33.80;51.60
19365;DHT22;9818;48.382;10.850;2022-08-05T14:41:30;34.40;50.30
19365;DHT22;9818;48.382;10.850;2022-08-05T14:43:58;34.80;46.10
19365;DHT22;9818;48.382;10.850;2022-08-05T14:46:27;34.80;43.10
19365;DHT22;9818;48.382;10.850;2022-08-05T14:48:56;34.50;42.60
19365;DHT22;9818;48.382;10.850;2022-08-05T14:51:25;34.10;43.90
19365;DHT22;9818;48.382;10.850;2022-08-05T14:53:54;34.40;44.20
19365;DHT22;9818;48.382;10.850;2022-08-05T14:56:22;34.80;41.50
19365;DHT22;9818;48.382;10.850;2022-08-05T14:58:54;34.60;41.20
19365;DHT22;9818;48.382;10.850;2022-08-05T15:01:22;34.80;41.00
19365;DHT22;9818;48.382;10.850;2022-08-05T15:03:51;35.00;38.60
19365;DHT22;9818;48.382;10.850;2022-08-05T15:06:19;34.90;39.30
19365;DHT22;9818;48.382;10.850;2022-08-05T15:08:48;35.00;35.00
19365;DHT22;9818;48.382;10.850;2022-08-05T15:11:16;34.30;40.90
19365;DHT22;9818;48.382;10.850;2022-08-05T15:13:45;34.60;38.90
19365;DHT22;9818;48.382;10.850;2022-08-05T15:16:16;34.90;38.80
19365;DHT22;9818;48.382;10.850;2022-08-05T15:18:44;34.80;38.90
19365;DHT22;9818;48.382;10.850;2022-08-05T15:21:13;34.60;38.70
19365;DHT22;9818;48.382;10.850;2022-08-05T15:23:41;34.80;38.00
19365;DHT22;9818;48.382;10.850;2022-08-05T15:26:09;34.30;38.90
19365;DHT22;9818;48.382;10.850;2022-08-05T15:28:39;34.40;37.80
19365;DHT22;9818;48.382;10.850;2022-08-05T15:31:08;34.40;39.10
19365;DHT22;9818;48.382;10.850;2022-08-05T15:33:39;34.30;38.30
19365;DHT22;9818;48.382;10.850;2022-08-05T15:36:08;32.60;47.30
19365;DHT22;9818;48.382;10.850;2022-08-05T15:38:37;32.40;54.80
19365;DHT22;9818;48.382;10.850;2022-08-05T15:41:06;32.90;51.40
19365;DHT22;9818;48.382;10.850;2022-08-05T15:43:34;33.10;51.40
19365;DHT22;9818;48.382;10.850;2022-08-05T15:46:03;33.10;51.80
19365;DHT22;9818;48.382;10.850;2022-08-05T15:48:31;32.70;54.30
19365;DHT22;9818;48.382;10.850;2022-08-05T15:51:02;31.80;59.70
19365;DHT22;9818;48.382;10.850;2022-08-05T15:53:31;31.40;64.80
19365;DHT22;9818;48.382;10.850;2022-08-05T15:56:00;31.70;68.10
19365;DHT22;9818;48.382;10.850;2022-08-05T15:58:29;32.10;66.50
19365;DHT22;9818;48.382;10.850;2022-08-05T16:00:57;32.10;65.00
19365;DHT22;9818;48.382;10.850;2022-08-05T16:03:27;32.00;65.90
19365;DHT22;9818;48.382;10.850;2022-08-05T16:05:55;31.90;67.20
19365;DHT22;9818;48.382;10.850;2022-08-05T16:08:26;32.00;66.90
19365;DHT22;9818;48.382;10.850;2022-08-05T16:10:54;31.90;67.40
19365;DHT22;9818;48.382;10.850;2022-08-05T16:13:23;31.90;69.40